<?xml version="1.0" encoding="UTF-8" standalone="no" ?>
<gpx xmlns="http://www.topografix.com/GPX/1/1" xmlns:xsi="http://www.w3.org/2001/XMLSchema-instance" xsi:schemaLocation="http://www.topografix.com/GPX/1/1 http://www.topografix.com/GPX/1/1/gpx.xsd" version="1.1" creator="VisuGPX - https://www.visugpx.com">
  <metadata>
    <name>sorti desvre</name>
    <desc><![CDATA[sortie du 20.02]]></desc>
  </metadata>
  <trk>
    <name><![CDATA[2016-02-20]]></name>
    <trkseg>
      <trkpt lat="50.67115" lon="1.83122">
        <ele>80.6</ele>
        <time>2016-02-20T09:12:31Z</time>
      </trkpt>
      <trkpt lat="50.671" lon="1.83129">
        <ele>80.7</ele>
        <time>2016-02-20T09:12:41Z</time>
      </trkpt>
      <trkpt lat="50.67086" lon="1.83115">
        <ele>80.1</ele>
        <time>2016-02-20T09:13:01Z</time>
      </trkpt>
      <trkpt lat="50.67062" lon="1.8313">
        <ele>80.4</ele>
        <time>2016-02-20T09:13:11Z</time>
      </trkpt>
      <trkpt lat="50.67062" lon="1.83091">
        <ele>78.4</ele>
        <time>2016-02-20T09:13:21Z</time>
      </trkpt>
      <trkpt lat="50.67061" lon="1.83076">
        <ele>77.7</ele>
        <time>2016-02-20T09:13:31Z</time>
      </trkpt>
      <trkpt lat="50.67046" lon="1.8306">
        <ele>77.2</ele>
        <time>2016-02-20T09:13:41Z</time>
      </trkpt>
      <trkpt lat="50.66983" lon="1.83064">
        <ele>78.2</ele>
        <time>2016-02-20T09:14:01Z</time>
      </trkpt>
      <trkpt lat="50.66962" lon="1.83058">
        <ele>79.4</ele>
        <time>2016-02-20T09:14:11Z</time>
      </trkpt>
      <trkpt lat="50.66932" lon="1.83071">
        <ele>80.1</ele>
        <time>2016-02-20T09:14:21Z</time>
      </trkpt>
      <trkpt lat="50.66905" lon="1.83095">
        <ele>81.9</ele>
        <time>2016-02-20T09:14:31Z</time>
      </trkpt>
      <trkpt lat="50.66891" lon="1.83116">
        <ele>84.8</ele>
        <time>2016-02-20T09:14:41Z</time>
      </trkpt>
      <trkpt lat="50.66874" lon="1.83145">
        <ele>87.4</ele>
        <time>2016-02-20T09:14:51Z</time>
      </trkpt>
      <trkpt lat="50.6686" lon="1.83175">
        <ele>89.4</ele>
        <time>2016-02-20T09:15:01Z</time>
      </trkpt>
      <trkpt lat="50.6686" lon="1.83196">
        <ele>90.1</ele>
        <time>2016-02-20T09:15:11Z</time>
      </trkpt>
      <trkpt lat="50.66858" lon="1.83223">
        <ele>91.4</ele>
        <time>2016-02-20T09:15:21Z</time>
      </trkpt>
      <trkpt lat="50.66857" lon="1.83245">
        <ele>93</ele>
        <time>2016-02-20T09:15:31Z</time>
      </trkpt>
      <trkpt lat="50.66849" lon="1.83266">
        <ele>94.4</ele>
        <time>2016-02-20T09:15:41Z</time>
      </trkpt>
      <trkpt lat="50.6683" lon="1.83299">
        <ele>96.1</ele>
        <time>2016-02-20T09:15:51Z</time>
      </trkpt>
      <trkpt lat="50.66812" lon="1.83317">
        <ele>97.2</ele>
        <time>2016-02-20T09:16:01Z</time>
      </trkpt>
      <trkpt lat="50.6679" lon="1.83338">
        <ele>98.7</ele>
        <time>2016-02-20T09:16:11Z</time>
      </trkpt>
      <trkpt lat="50.66833" lon="1.83396">
        <ele>99</ele>
        <time>2016-02-20T09:16:21Z</time>
      </trkpt>
      <trkpt lat="50.66806" lon="1.83431">
        <ele>101.6</ele>
        <time>2016-02-20T09:16:31Z</time>
      </trkpt>
      <trkpt lat="50.66845" lon="1.83441">
        <ele>100</ele>
        <time>2016-02-20T09:16:41Z</time>
      </trkpt>
      <trkpt lat="50.66872" lon="1.83472">
        <ele>96.8</ele>
        <time>2016-02-20T09:16:51Z</time>
      </trkpt>
      <trkpt lat="50.66871" lon="1.83495">
        <ele>97.8</ele>
        <time>2016-02-20T09:17:01Z</time>
      </trkpt>
      <trkpt lat="50.66861" lon="1.83515">
        <ele>99</ele>
        <time>2016-02-20T09:17:11Z</time>
      </trkpt>
      <trkpt lat="50.66799" lon="1.83591">
        <ele>103.9</ele>
        <time>2016-02-20T09:17:31Z</time>
      </trkpt>
      <trkpt lat="50.66817" lon="1.83599">
        <ele>103</ele>
        <time>2016-02-20T09:17:41Z</time>
      </trkpt>
      <trkpt lat="50.66834" lon="1.83626">
        <ele>101.5</ele>
        <time>2016-02-20T09:17:51Z</time>
      </trkpt>
      <trkpt lat="50.66797" lon="1.83654">
        <ele>105.3</ele>
        <time>2016-02-20T09:18:01Z</time>
      </trkpt>
      <trkpt lat="50.66781" lon="1.83656">
        <ele>105.9</ele>
        <time>2016-02-20T09:18:11Z</time>
      </trkpt>
      <trkpt lat="50.66751" lon="1.83686">
        <ele>105.7</ele>
        <time>2016-02-20T09:18:21Z</time>
      </trkpt>
      <trkpt lat="50.66738" lon="1.83716">
        <ele>105.9</ele>
        <time>2016-02-20T09:18:31Z</time>
      </trkpt>
      <trkpt lat="50.66736" lon="1.83745">
        <ele>106.4</ele>
        <time>2016-02-20T09:18:41Z</time>
      </trkpt>
      <trkpt lat="50.66737" lon="1.83772">
        <ele>106.5</ele>
        <time>2016-02-20T09:18:51Z</time>
      </trkpt>
      <trkpt lat="50.66746" lon="1.8381">
        <ele>107.1</ele>
        <time>2016-02-20T09:19:01Z</time>
      </trkpt>
      <trkpt lat="50.66747" lon="1.83844">
        <ele>107.5</ele>
        <time>2016-02-20T09:19:11Z</time>
      </trkpt>
      <trkpt lat="50.66754" lon="1.83877">
        <ele>107.4</ele>
        <time>2016-02-20T09:19:21Z</time>
      </trkpt>
      <trkpt lat="50.66769" lon="1.83906">
        <ele>107.4</ele>
        <time>2016-02-20T09:19:31Z</time>
      </trkpt>
      <trkpt lat="50.66787" lon="1.83935">
        <ele>108.5</ele>
        <time>2016-02-20T09:19:41Z</time>
      </trkpt>
      <trkpt lat="50.66805" lon="1.83964">
        <ele>108.7</ele>
        <time>2016-02-20T09:19:51Z</time>
      </trkpt>
      <trkpt lat="50.66819" lon="1.83992">
        <ele>109.4</ele>
        <time>2016-02-20T09:20:01Z</time>
      </trkpt>
      <trkpt lat="50.66825" lon="1.84012">
        <ele>109.6</ele>
        <time>2016-02-20T09:20:11Z</time>
      </trkpt>
      <trkpt lat="50.66835" lon="1.84044">
        <ele>111.1</ele>
        <time>2016-02-20T09:20:21Z</time>
      </trkpt>
      <trkpt lat="50.66852" lon="1.84081">
        <ele>110.6</ele>
        <time>2016-02-20T09:20:31Z</time>
      </trkpt>
      <trkpt lat="50.66864" lon="1.84114">
        <ele>111.6</ele>
        <time>2016-02-20T09:20:41Z</time>
      </trkpt>
      <trkpt lat="50.66882" lon="1.8413">
        <ele>110.2</ele>
        <time>2016-02-20T09:20:51Z</time>
      </trkpt>
      <trkpt lat="50.66903" lon="1.84147">
        <ele>109.5</ele>
        <time>2016-02-20T09:21:01Z</time>
      </trkpt>
      <trkpt lat="50.66914" lon="1.8416">
        <ele>109.1</ele>
        <time>2016-02-20T09:21:11Z</time>
      </trkpt>
      <trkpt lat="50.66922" lon="1.84194">
        <ele>108.8</ele>
        <time>2016-02-20T09:21:21Z</time>
      </trkpt>
      <trkpt lat="50.66928" lon="1.84232">
        <ele>109.1</ele>
        <time>2016-02-20T09:21:31Z</time>
      </trkpt>
      <trkpt lat="50.6691" lon="1.8426">
        <ele>110.2</ele>
        <time>2016-02-20T09:21:41Z</time>
      </trkpt>
      <trkpt lat="50.66896" lon="1.84286">
        <ele>110.2</ele>
        <time>2016-02-20T09:21:51Z</time>
      </trkpt>
      <trkpt lat="50.66886" lon="1.84299">
        <ele>109.2</ele>
        <time>2016-02-20T09:22:01Z</time>
      </trkpt>
      <trkpt lat="50.66862" lon="1.84322">
        <ele>102.2</ele>
        <time>2016-02-20T09:22:11Z</time>
      </trkpt>
      <trkpt lat="50.6686" lon="1.84341">
        <ele>99.7</ele>
        <time>2016-02-20T09:22:21Z</time>
      </trkpt>
      <trkpt lat="50.66851" lon="1.84371">
        <ele>98.6</ele>
        <time>2016-02-20T09:22:31Z</time>
      </trkpt>
      <trkpt lat="50.66866" lon="1.84392">
        <ele>100.2</ele>
        <time>2016-02-20T09:22:41Z</time>
      </trkpt>
      <trkpt lat="50.66877" lon="1.8441">
        <ele>101.4</ele>
        <time>2016-02-20T09:22:51Z</time>
      </trkpt>
      <trkpt lat="50.66881" lon="1.84423">
        <ele>101.3</ele>
        <time>2016-02-20T09:23:01Z</time>
      </trkpt>
      <trkpt lat="50.66887" lon="1.84456">
        <ele>100.4</ele>
        <time>2016-02-20T09:23:11Z</time>
      </trkpt>
      <trkpt lat="50.66889" lon="1.8449">
        <ele>101.2</ele>
        <time>2016-02-20T09:23:21Z</time>
      </trkpt>
      <trkpt lat="50.669" lon="1.8452">
        <ele>106.6</ele>
        <time>2016-02-20T09:23:31Z</time>
      </trkpt>
      <trkpt lat="50.66888" lon="1.84551">
        <ele>107.7</ele>
        <time>2016-02-20T09:23:41Z</time>
      </trkpt>
      <trkpt lat="50.6688" lon="1.84575">
        <ele>106.8</ele>
        <time>2016-02-20T09:23:51Z</time>
      </trkpt>
      <trkpt lat="50.66866" lon="1.84593">
        <ele>106.1</ele>
        <time>2016-02-20T09:24:01Z</time>
      </trkpt>
      <trkpt lat="50.6687" lon="1.84631">
        <ele>107.8</ele>
        <time>2016-02-20T09:24:11Z</time>
      </trkpt>
      <trkpt lat="50.66856" lon="1.84653">
        <ele>106.6</ele>
        <time>2016-02-20T09:24:21Z</time>
      </trkpt>
      <trkpt lat="50.6684" lon="1.84667">
        <ele>102</ele>
        <time>2016-02-20T09:24:31Z</time>
      </trkpt>
      <trkpt lat="50.66798" lon="1.84686">
        <ele>99.8</ele>
        <time>2016-02-20T09:24:41Z</time>
      </trkpt>
      <trkpt lat="50.66757" lon="1.84686">
        <ele>102.9</ele>
        <time>2016-02-20T09:24:51Z</time>
      </trkpt>
      <trkpt lat="50.66736" lon="1.84683">
        <ele>107.9</ele>
        <time>2016-02-20T09:25:01Z</time>
      </trkpt>
      <trkpt lat="50.66719" lon="1.84666">
        <ele>108.2</ele>
        <time>2016-02-20T09:25:11Z</time>
      </trkpt>
      <trkpt lat="50.66707" lon="1.84651">
        <ele>109.9</ele>
        <time>2016-02-20T09:25:21Z</time>
      </trkpt>
      <trkpt lat="50.66695" lon="1.84651">
        <ele>114.6</ele>
        <time>2016-02-20T09:25:31Z</time>
      </trkpt>
      <trkpt lat="50.66678" lon="1.84637">
        <ele>115.8</ele>
        <time>2016-02-20T09:25:41Z</time>
      </trkpt>
      <trkpt lat="50.66682" lon="1.84582">
        <ele>109.3</ele>
        <time>2016-02-20T09:25:51Z</time>
      </trkpt>
      <trkpt lat="50.66699" lon="1.84517">
        <ele>103.4</ele>
        <time>2016-02-20T09:26:01Z</time>
      </trkpt>
      <trkpt lat="50.66718" lon="1.84473">
        <ele>103.9</ele>
        <time>2016-02-20T09:26:11Z</time>
      </trkpt>
      <trkpt lat="50.66745" lon="1.84441">
        <ele>100.1</ele>
        <time>2016-02-20T09:26:21Z</time>
      </trkpt>
      <trkpt lat="50.66765" lon="1.84415">
        <ele>98.5</ele>
        <time>2016-02-20T09:26:31Z</time>
      </trkpt>
      <trkpt lat="50.66789" lon="1.84388">
        <ele>98.2</ele>
        <time>2016-02-20T09:26:41Z</time>
      </trkpt>
      <trkpt lat="50.66806" lon="1.84367">
        <ele>98.8</ele>
        <time>2016-02-20T09:26:51Z</time>
      </trkpt>
      <trkpt lat="50.66825" lon="1.84349">
        <ele>99.9</ele>
        <time>2016-02-20T09:27:01Z</time>
      </trkpt>
      <trkpt lat="50.66833" lon="1.84345">
        <ele>99.2</ele>
        <time>2016-02-20T09:27:11Z</time>
      </trkpt>
      <trkpt lat="50.66839" lon="1.84348">
        <ele>99.1</ele>
        <time>2016-02-20T09:27:21Z</time>
      </trkpt>
      <trkpt lat="50.66837" lon="1.84364">
        <ele>98.1</ele>
        <time>2016-02-20T09:27:32Z</time>
      </trkpt>
      <trkpt lat="50.66847" lon="1.84383">
        <ele>98.5</ele>
        <time>2016-02-20T09:27:42Z</time>
      </trkpt>
      <trkpt lat="50.66859" lon="1.84403">
        <ele>98.5</ele>
        <time>2016-02-20T09:27:52Z</time>
      </trkpt>
      <trkpt lat="50.66865" lon="1.84422">
        <ele>98.7</ele>
        <time>2016-02-20T09:28:02Z</time>
      </trkpt>
      <trkpt lat="50.66872" lon="1.84435">
        <ele>99.4</ele>
        <time>2016-02-20T09:28:12Z</time>
      </trkpt>
      <trkpt lat="50.66887" lon="1.84449">
        <ele>100.6</ele>
        <time>2016-02-20T09:28:22Z</time>
      </trkpt>
      <trkpt lat="50.66887" lon="1.84487">
        <ele>100.8</ele>
        <time>2016-02-20T09:28:32Z</time>
      </trkpt>
      <trkpt lat="50.66899" lon="1.84519">
        <ele>106.4</ele>
        <time>2016-02-20T09:28:42Z</time>
      </trkpt>
      <trkpt lat="50.66893" lon="1.84544">
        <ele>107.6</ele>
        <time>2016-02-20T09:28:52Z</time>
      </trkpt>
      <trkpt lat="50.66881" lon="1.84565">
        <ele>106.8</ele>
        <time>2016-02-20T09:29:02Z</time>
      </trkpt>
      <trkpt lat="50.66871" lon="1.84586">
        <ele>106.2</ele>
        <time>2016-02-20T09:29:12Z</time>
      </trkpt>
      <trkpt lat="50.6687" lon="1.84627">
        <ele>107.7</ele>
        <time>2016-02-20T09:29:22Z</time>
      </trkpt>
      <trkpt lat="50.66859" lon="1.84655">
        <ele>107.9</ele>
        <time>2016-02-20T09:29:32Z</time>
      </trkpt>
      <trkpt lat="50.66836" lon="1.8467">
        <ele>100.9</ele>
        <time>2016-02-20T09:29:42Z</time>
      </trkpt>
      <trkpt lat="50.66784" lon="1.84699">
        <ele>100.1</ele>
        <time>2016-02-20T09:29:52Z</time>
      </trkpt>
      <trkpt lat="50.66753" lon="1.84701">
        <ele>105.5</ele>
        <time>2016-02-20T09:30:02Z</time>
      </trkpt>
      <trkpt lat="50.66732" lon="1.84686">
        <ele>109.9</ele>
        <time>2016-02-20T09:30:12Z</time>
      </trkpt>
      <trkpt lat="50.66718" lon="1.84665">
        <ele>108.3</ele>
        <time>2016-02-20T09:30:22Z</time>
      </trkpt>
      <trkpt lat="50.66706" lon="1.84647">
        <ele>109.7</ele>
        <time>2016-02-20T09:30:32Z</time>
      </trkpt>
      <trkpt lat="50.6671" lon="1.84591">
        <ele>101.4</ele>
        <time>2016-02-20T09:30:42Z</time>
      </trkpt>
      <trkpt lat="50.66711" lon="1.84543">
        <ele>102</ele>
        <time>2016-02-20T09:30:52Z</time>
      </trkpt>
      <trkpt lat="50.66709" lon="1.84498">
        <ele>100.9</ele>
        <time>2016-02-20T09:31:02Z</time>
      </trkpt>
      <trkpt lat="50.66725" lon="1.84456">
        <ele>105.1</ele>
        <time>2016-02-20T09:31:12Z</time>
      </trkpt>
      <trkpt lat="50.66739" lon="1.84425">
        <ele>103.7</ele>
        <time>2016-02-20T09:31:22Z</time>
      </trkpt>
      <trkpt lat="50.66756" lon="1.844">
        <ele>100.2</ele>
        <time>2016-02-20T09:31:32Z</time>
      </trkpt>
      <trkpt lat="50.66776" lon="1.84379">
        <ele>100.4</ele>
        <time>2016-02-20T09:31:42Z</time>
      </trkpt>
      <trkpt lat="50.66791" lon="1.84364">
        <ele>101.3</ele>
        <time>2016-02-20T09:31:52Z</time>
      </trkpt>
      <trkpt lat="50.66805" lon="1.8435">
        <ele>102.5</ele>
        <time>2016-02-20T09:32:02Z</time>
      </trkpt>
      <trkpt lat="50.66825" lon="1.84336">
        <ele>101.8</ele>
        <time>2016-02-20T09:32:12Z</time>
      </trkpt>
      <trkpt lat="50.66849" lon="1.84321">
        <ele>103.4</ele>
        <time>2016-02-20T09:32:22Z</time>
      </trkpt>
      <trkpt lat="50.66864" lon="1.84312">
        <ele>104.5</ele>
        <time>2016-02-20T09:32:32Z</time>
      </trkpt>
      <trkpt lat="50.66869" lon="1.84314">
        <ele>105</ele>
        <time>2016-02-20T09:32:42Z</time>
      </trkpt>
      <trkpt lat="50.66872" lon="1.8433">
        <ele>104</ele>
        <time>2016-02-20T09:32:52Z</time>
      </trkpt>
      <trkpt lat="50.66879" lon="1.84347">
        <ele>105.4</ele>
        <time>2016-02-20T09:33:02Z</time>
      </trkpt>
      <trkpt lat="50.66884" lon="1.84367">
        <ele>105.9</ele>
        <time>2016-02-20T09:33:12Z</time>
      </trkpt>
      <trkpt lat="50.669" lon="1.84393">
        <ele>106.9</ele>
        <time>2016-02-20T09:33:22Z</time>
      </trkpt>
      <trkpt lat="50.66916" lon="1.84419">
        <ele>108.7</ele>
        <time>2016-02-20T09:33:32Z</time>
      </trkpt>
      <trkpt lat="50.66916" lon="1.84455">
        <ele>107.7</ele>
        <time>2016-02-20T09:33:42Z</time>
      </trkpt>
      <trkpt lat="50.66912" lon="1.84488">
        <ele>106.9</ele>
        <time>2016-02-20T09:33:52Z</time>
      </trkpt>
      <trkpt lat="50.66905" lon="1.84525">
        <ele>107.4</ele>
        <time>2016-02-20T09:34:02Z</time>
      </trkpt>
      <trkpt lat="50.66893" lon="1.84562">
        <ele>107.8</ele>
        <time>2016-02-20T09:34:12Z</time>
      </trkpt>
      <trkpt lat="50.66888" lon="1.84595">
        <ele>107.9</ele>
        <time>2016-02-20T09:34:22Z</time>
      </trkpt>
      <trkpt lat="50.66882" lon="1.84628">
        <ele>107.9</ele>
        <time>2016-02-20T09:34:32Z</time>
      </trkpt>
      <trkpt lat="50.66877" lon="1.84665">
        <ele>107.9</ele>
        <time>2016-02-20T09:34:42Z</time>
      </trkpt>
      <trkpt lat="50.66873" lon="1.84697">
        <ele>108.1</ele>
        <time>2016-02-20T09:34:52Z</time>
      </trkpt>
      <trkpt lat="50.66875" lon="1.84724">
        <ele>108</ele>
        <time>2016-02-20T09:35:02Z</time>
      </trkpt>
      <trkpt lat="50.6687" lon="1.8476">
        <ele>108</ele>
        <time>2016-02-20T09:35:12Z</time>
      </trkpt>
      <trkpt lat="50.66859" lon="1.84799">
        <ele>108.2</ele>
        <time>2016-02-20T09:35:22Z</time>
      </trkpt>
      <trkpt lat="50.66869" lon="1.84817">
        <ele>107.5</ele>
        <time>2016-02-20T09:35:32Z</time>
      </trkpt>
      <trkpt lat="50.66849" lon="1.84855">
        <ele>108.5</ele>
        <time>2016-02-20T09:35:42Z</time>
      </trkpt>
      <trkpt lat="50.66823" lon="1.84854">
        <ele>110.5</ele>
        <time>2016-02-20T09:35:52Z</time>
      </trkpt>
      <trkpt lat="50.66793" lon="1.84849">
        <ele>111.5</ele>
        <time>2016-02-20T09:36:02Z</time>
      </trkpt>
      <trkpt lat="50.66772" lon="1.84856">
        <ele>112.2</ele>
        <time>2016-02-20T09:36:12Z</time>
      </trkpt>
      <trkpt lat="50.6675" lon="1.84856">
        <ele>113.3</ele>
        <time>2016-02-20T09:36:22Z</time>
      </trkpt>
      <trkpt lat="50.66743" lon="1.84812">
        <ele>114.6</ele>
        <time>2016-02-20T09:36:32Z</time>
      </trkpt>
      <trkpt lat="50.66729" lon="1.84794">
        <ele>115.5</ele>
        <time>2016-02-20T09:36:42Z</time>
      </trkpt>
      <trkpt lat="50.66714" lon="1.84778">
        <ele>116.6</ele>
        <time>2016-02-20T09:36:52Z</time>
      </trkpt>
      <trkpt lat="50.66686" lon="1.848">
        <ele>119.5</ele>
        <time>2016-02-20T09:37:02Z</time>
      </trkpt>
      <trkpt lat="50.66655" lon="1.84821">
        <ele>119.4</ele>
        <time>2016-02-20T09:37:12Z</time>
      </trkpt>
      <trkpt lat="50.66636" lon="1.84817">
        <ele>120.1</ele>
        <time>2016-02-20T09:37:22Z</time>
      </trkpt>
      <trkpt lat="50.6663" lon="1.84821">
        <ele>120.5</ele>
        <time>2016-02-20T09:37:32Z</time>
      </trkpt>
      <trkpt lat="50.66613" lon="1.84813">
        <ele>121.6</ele>
        <time>2016-02-20T09:37:42Z</time>
      </trkpt>
      <trkpt lat="50.66605" lon="1.84769">
        <ele>121.8</ele>
        <time>2016-02-20T09:37:52Z</time>
      </trkpt>
      <trkpt lat="50.66614" lon="1.84704">
        <ele>120.3</ele>
        <time>2016-02-20T09:38:02Z</time>
      </trkpt>
      <trkpt lat="50.66625" lon="1.84649">
        <ele>119.7</ele>
        <time>2016-02-20T09:38:12Z</time>
      </trkpt>
      <trkpt lat="50.66634" lon="1.84608">
        <ele>119.1</ele>
        <time>2016-02-20T09:38:22Z</time>
      </trkpt>
      <trkpt lat="50.6665" lon="1.84566">
        <ele>117</ele>
        <time>2016-02-20T09:38:32Z</time>
      </trkpt>
      <trkpt lat="50.66665" lon="1.84501">
        <ele>115</ele>
        <time>2016-02-20T09:38:42Z</time>
      </trkpt>
      <trkpt lat="50.66678" lon="1.84451">
        <ele>113.6</ele>
        <time>2016-02-20T09:38:52Z</time>
      </trkpt>
      <trkpt lat="50.66688" lon="1.84419">
        <ele>113.8</ele>
        <time>2016-02-20T09:39:02Z</time>
      </trkpt>
      <trkpt lat="50.66701" lon="1.84373">
        <ele>112.5</ele>
        <time>2016-02-20T09:39:12Z</time>
      </trkpt>
      <trkpt lat="50.66715" lon="1.84339">
        <ele>112.9</ele>
        <time>2016-02-20T09:39:22Z</time>
      </trkpt>
      <trkpt lat="50.66724" lon="1.84307">
        <ele>113.1</ele>
        <time>2016-02-20T09:39:32Z</time>
      </trkpt>
      <trkpt lat="50.66734" lon="1.84278">
        <ele>112.9</ele>
        <time>2016-02-20T09:39:42Z</time>
      </trkpt>
      <trkpt lat="50.6674" lon="1.84243">
        <ele>112.1</ele>
        <time>2016-02-20T09:39:52Z</time>
      </trkpt>
      <trkpt lat="50.66749" lon="1.8421">
        <ele>112.3</ele>
        <time>2016-02-20T09:40:02Z</time>
      </trkpt>
      <trkpt lat="50.66753" lon="1.84174">
        <ele>112.1</ele>
        <time>2016-02-20T09:40:12Z</time>
      </trkpt>
      <trkpt lat="50.66729" lon="1.84174">
        <ele>110.1</ele>
        <time>2016-02-20T09:40:22Z</time>
      </trkpt>
      <trkpt lat="50.66718" lon="1.84163">
        <ele>109.2</ele>
        <time>2016-02-20T09:40:32Z</time>
      </trkpt>
      <trkpt lat="50.66707" lon="1.84142">
        <ele>108.2</ele>
        <time>2016-02-20T09:40:42Z</time>
      </trkpt>
      <trkpt lat="50.66695" lon="1.84124">
        <ele>107.5</ele>
        <time>2016-02-20T09:40:52Z</time>
      </trkpt>
      <trkpt lat="50.66685" lon="1.84076">
        <ele>103.9</ele>
        <time>2016-02-20T09:41:02Z</time>
      </trkpt>
      <trkpt lat="50.66677" lon="1.84037">
        <ele>102.9</ele>
        <time>2016-02-20T09:41:12Z</time>
      </trkpt>
      <trkpt lat="50.66675" lon="1.84004">
        <ele>102.6</ele>
        <time>2016-02-20T09:41:22Z</time>
      </trkpt>
      <trkpt lat="50.66671" lon="1.83961">
        <ele>102.4</ele>
        <time>2016-02-20T09:41:32Z</time>
      </trkpt>
      <trkpt lat="50.66664" lon="1.83936">
        <ele>101.9</ele>
        <time>2016-02-20T09:41:42Z</time>
      </trkpt>
      <trkpt lat="50.66657" lon="1.83903">
        <ele>101.5</ele>
        <time>2016-02-20T09:41:52Z</time>
      </trkpt>
      <trkpt lat="50.66653" lon="1.83867">
        <ele>101.1</ele>
        <time>2016-02-20T09:42:02Z</time>
      </trkpt>
      <trkpt lat="50.66648" lon="1.83837">
        <ele>100.7</ele>
        <time>2016-02-20T09:42:12Z</time>
      </trkpt>
      <trkpt lat="50.66649" lon="1.83788">
        <ele>100.1</ele>
        <time>2016-02-20T09:42:22Z</time>
      </trkpt>
      <trkpt lat="50.66632" lon="1.83751">
        <ele>97.3</ele>
        <time>2016-02-20T09:42:32Z</time>
      </trkpt>
      <trkpt lat="50.66619" lon="1.83735">
        <ele>95.3</ele>
        <time>2016-02-20T09:42:42Z</time>
      </trkpt>
      <trkpt lat="50.66605" lon="1.83713">
        <ele>93.7</ele>
        <time>2016-02-20T09:42:52Z</time>
      </trkpt>
      <trkpt lat="50.66598" lon="1.83688">
        <ele>93</ele>
        <time>2016-02-20T09:43:02Z</time>
      </trkpt>
      <trkpt lat="50.66596" lon="1.83671">
        <ele>93</ele>
        <time>2016-02-20T09:43:12Z</time>
      </trkpt>
      <trkpt lat="50.66601" lon="1.83654">
        <ele>93.2</ele>
        <time>2016-02-20T09:43:22Z</time>
      </trkpt>
      <trkpt lat="50.66612" lon="1.83665">
        <ele>93</ele>
        <time>2016-02-20T09:43:32Z</time>
      </trkpt>
      <trkpt lat="50.66626" lon="1.8368">
        <ele>93.5</ele>
        <time>2016-02-20T09:43:42Z</time>
      </trkpt>
      <trkpt lat="50.66641" lon="1.83684">
        <ele>94.4</ele>
        <time>2016-02-20T09:43:52Z</time>
      </trkpt>
      <trkpt lat="50.6666" lon="1.83685">
        <ele>97.5</ele>
        <time>2016-02-20T09:44:02Z</time>
      </trkpt>
      <trkpt lat="50.6667" lon="1.83677">
        <ele>98</ele>
        <time>2016-02-20T09:44:12Z</time>
      </trkpt>
      <trkpt lat="50.66686" lon="1.83657">
        <ele>99</ele>
        <time>2016-02-20T09:44:22Z</time>
      </trkpt>
      <trkpt lat="50.66701" lon="1.83647">
        <ele>100.4</ele>
        <time>2016-02-20T09:44:32Z</time>
      </trkpt>
      <trkpt lat="50.667" lon="1.8362">
        <ele>98.6</ele>
        <time>2016-02-20T09:44:42Z</time>
      </trkpt>
      <trkpt lat="50.66705" lon="1.83561">
        <ele>97.2</ele>
        <time>2016-02-20T09:44:52Z</time>
      </trkpt>
      <trkpt lat="50.66694" lon="1.8354">
        <ele>94.8</ele>
        <time>2016-02-20T09:45:02Z</time>
      </trkpt>
      <trkpt lat="50.66687" lon="1.83515">
        <ele>92.9</ele>
        <time>2016-02-20T09:45:12Z</time>
      </trkpt>
      <trkpt lat="50.6668" lon="1.83489">
        <ele>91.5</ele>
        <time>2016-02-20T09:45:22Z</time>
      </trkpt>
      <trkpt lat="50.66678" lon="1.83458">
        <ele>90.3</ele>
        <time>2016-02-20T09:45:32Z</time>
      </trkpt>
      <trkpt lat="50.66675" lon="1.83423">
        <ele>89.4</ele>
        <time>2016-02-20T09:45:42Z</time>
      </trkpt>
      <trkpt lat="50.66677" lon="1.83399">
        <ele>88.8</ele>
        <time>2016-02-20T09:45:52Z</time>
      </trkpt>
      <trkpt lat="50.66687" lon="1.8337">
        <ele>88.2</ele>
        <time>2016-02-20T09:46:02Z</time>
      </trkpt>
      <trkpt lat="50.66699" lon="1.83338">
        <ele>88.2</ele>
        <time>2016-02-20T09:46:12Z</time>
      </trkpt>
      <trkpt lat="50.66712" lon="1.83291">
        <ele>89.3</ele>
        <time>2016-02-20T09:46:22Z</time>
      </trkpt>
      <trkpt lat="50.66725" lon="1.83262">
        <ele>89</ele>
        <time>2016-02-20T09:46:32Z</time>
      </trkpt>
      <trkpt lat="50.66734" lon="1.83234">
        <ele>88.9</ele>
        <time>2016-02-20T09:46:42Z</time>
      </trkpt>
      <trkpt lat="50.66749" lon="1.83201">
        <ele>88.3</ele>
        <time>2016-02-20T09:46:52Z</time>
      </trkpt>
      <trkpt lat="50.66762" lon="1.83184">
        <ele>89.5</ele>
        <time>2016-02-20T09:47:02Z</time>
      </trkpt>
      <trkpt lat="50.66774" lon="1.83157">
        <ele>88.5</ele>
        <time>2016-02-20T09:47:12Z</time>
      </trkpt>
      <trkpt lat="50.66788" lon="1.83122">
        <ele>85.5</ele>
        <time>2016-02-20T09:47:22Z</time>
      </trkpt>
      <trkpt lat="50.66794" lon="1.831">
        <ele>84.7</ele>
        <time>2016-02-20T09:47:32Z</time>
      </trkpt>
      <trkpt lat="50.66801" lon="1.83052">
        <ele>81.9</ele>
        <time>2016-02-20T09:47:42Z</time>
      </trkpt>
      <trkpt lat="50.66796" lon="1.83027">
        <ele>81.7</ele>
        <time>2016-02-20T09:47:52Z</time>
      </trkpt>
      <trkpt lat="50.66779" lon="1.83018">
        <ele>82.9</ele>
        <time>2016-02-20T09:48:02Z</time>
      </trkpt>
      <trkpt lat="50.66762" lon="1.82998">
        <ele>83.6</ele>
        <time>2016-02-20T09:48:12Z</time>
      </trkpt>
      <trkpt lat="50.66754" lon="1.82963">
        <ele>84.3</ele>
        <time>2016-02-20T09:48:22Z</time>
      </trkpt>
      <trkpt lat="50.66738" lon="1.82937">
        <ele>85.7</ele>
        <time>2016-02-20T09:48:32Z</time>
      </trkpt>
      <trkpt lat="50.66723" lon="1.82907">
        <ele>86</ele>
        <time>2016-02-20T09:48:42Z</time>
      </trkpt>
      <trkpt lat="50.66712" lon="1.82867">
        <ele>88.2</ele>
        <time>2016-02-20T09:48:52Z</time>
      </trkpt>
      <trkpt lat="50.66699" lon="1.82834">
        <ele>88.6</ele>
        <time>2016-02-20T09:49:02Z</time>
      </trkpt>
      <trkpt lat="50.66686" lon="1.82808">
        <ele>91.7</ele>
        <time>2016-02-20T09:49:12Z</time>
      </trkpt>
      <trkpt lat="50.66671" lon="1.82789">
        <ele>91.7</ele>
        <time>2016-02-20T09:49:22Z</time>
      </trkpt>
      <trkpt lat="50.66654" lon="1.82769">
        <ele>93.2</ele>
        <time>2016-02-20T09:49:32Z</time>
      </trkpt>
      <trkpt lat="50.66641" lon="1.82747">
        <ele>94</ele>
        <time>2016-02-20T09:49:42Z</time>
      </trkpt>
      <trkpt lat="50.66643" lon="1.82717">
        <ele>94.2</ele>
        <time>2016-02-20T09:49:52Z</time>
      </trkpt>
      <trkpt lat="50.66651" lon="1.82694">
        <ele>94.4</ele>
        <time>2016-02-20T09:50:02Z</time>
      </trkpt>
      <trkpt lat="50.66661" lon="1.82669">
        <ele>94.1</ele>
        <time>2016-02-20T09:50:12Z</time>
      </trkpt>
      <trkpt lat="50.66673" lon="1.82642">
        <ele>94</ele>
        <time>2016-02-20T09:50:22Z</time>
      </trkpt>
      <trkpt lat="50.66689" lon="1.82621">
        <ele>93.9</ele>
        <time>2016-02-20T09:50:32Z</time>
      </trkpt>
      <trkpt lat="50.66704" lon="1.82604">
        <ele>93.8</ele>
        <time>2016-02-20T09:50:42Z</time>
      </trkpt>
      <trkpt lat="50.66719" lon="1.82579">
        <ele>93.7</ele>
        <time>2016-02-20T09:50:52Z</time>
      </trkpt>
      <trkpt lat="50.66731" lon="1.82559">
        <ele>93.4</ele>
        <time>2016-02-20T09:51:02Z</time>
      </trkpt>
      <trkpt lat="50.66744" lon="1.82532">
        <ele>92.9</ele>
        <time>2016-02-20T09:51:12Z</time>
      </trkpt>
      <trkpt lat="50.66755" lon="1.82508">
        <ele>93</ele>
        <time>2016-02-20T09:51:22Z</time>
      </trkpt>
      <trkpt lat="50.66767" lon="1.82482">
        <ele>93.4</ele>
        <time>2016-02-20T09:51:32Z</time>
      </trkpt>
      <trkpt lat="50.6678" lon="1.82452">
        <ele>94.1</ele>
        <time>2016-02-20T09:51:42Z</time>
      </trkpt>
      <trkpt lat="50.6679" lon="1.82425">
        <ele>94.5</ele>
        <time>2016-02-20T09:51:52Z</time>
      </trkpt>
      <trkpt lat="50.66801" lon="1.82402">
        <ele>94.8</ele>
        <time>2016-02-20T09:52:02Z</time>
      </trkpt>
      <trkpt lat="50.66815" lon="1.82379">
        <ele>95.4</ele>
        <time>2016-02-20T09:52:12Z</time>
      </trkpt>
      <trkpt lat="50.66828" lon="1.82347">
        <ele>96.3</ele>
        <time>2016-02-20T09:52:22Z</time>
      </trkpt>
      <trkpt lat="50.66831" lon="1.82332">
        <ele>96</ele>
        <time>2016-02-20T09:52:32Z</time>
      </trkpt>
      <trkpt lat="50.66851" lon="1.82355">
        <ele>96.9</ele>
        <time>2016-02-20T09:52:42Z</time>
      </trkpt>
      <trkpt lat="50.66866" lon="1.82358">
        <ele>97.2</ele>
        <time>2016-02-20T09:52:52Z</time>
      </trkpt>
      <trkpt lat="50.66878" lon="1.82369">
        <ele>97.6</ele>
        <time>2016-02-20T09:53:02Z</time>
      </trkpt>
      <trkpt lat="50.66889" lon="1.82374">
        <ele>98</ele>
        <time>2016-02-20T09:53:12Z</time>
      </trkpt>
      <trkpt lat="50.66905" lon="1.82385">
        <ele>98.6</ele>
        <time>2016-02-20T09:53:22Z</time>
      </trkpt>
      <trkpt lat="50.66907" lon="1.8242">
        <ele>98</ele>
        <time>2016-02-20T09:53:32Z</time>
      </trkpt>
      <trkpt lat="50.66896" lon="1.82443">
        <ele>98</ele>
        <time>2016-02-20T09:53:42Z</time>
      </trkpt>
      <trkpt lat="50.66896" lon="1.82468">
        <ele>97.2</ele>
        <time>2016-02-20T09:53:52Z</time>
      </trkpt>
      <trkpt lat="50.66883" lon="1.82512">
        <ele>97</ele>
        <time>2016-02-20T09:54:02Z</time>
      </trkpt>
      <trkpt lat="50.66889" lon="1.82542">
        <ele>97</ele>
        <time>2016-02-20T09:54:12Z</time>
      </trkpt>
      <trkpt lat="50.66882" lon="1.8258">
        <ele>97.9</ele>
        <time>2016-02-20T09:54:22Z</time>
      </trkpt>
      <trkpt lat="50.66887" lon="1.82614">
        <ele>99</ele>
        <time>2016-02-20T09:54:32Z</time>
      </trkpt>
      <trkpt lat="50.6689" lon="1.82652">
        <ele>99.5</ele>
        <time>2016-02-20T09:54:42Z</time>
      </trkpt>
      <trkpt lat="50.66894" lon="1.8268">
        <ele>99.8</ele>
        <time>2016-02-20T09:54:52Z</time>
      </trkpt>
      <trkpt lat="50.66895" lon="1.82704">
        <ele>99.1</ele>
        <time>2016-02-20T09:55:02Z</time>
      </trkpt>
      <trkpt lat="50.66905" lon="1.82737">
        <ele>96.3</ele>
        <time>2016-02-20T09:55:13Z</time>
      </trkpt>
      <trkpt lat="50.66911" lon="1.82771">
        <ele>94</ele>
        <time>2016-02-20T09:55:23Z</time>
      </trkpt>
      <trkpt lat="50.66918" lon="1.82799">
        <ele>91.4</ele>
        <time>2016-02-20T09:55:33Z</time>
      </trkpt>
      <trkpt lat="50.66936" lon="1.82803">
        <ele>89.8</ele>
        <time>2016-02-20T09:55:43Z</time>
      </trkpt>
      <trkpt lat="50.66946" lon="1.82824">
        <ele>87.7</ele>
        <time>2016-02-20T09:55:53Z</time>
      </trkpt>
      <trkpt lat="50.66956" lon="1.82843">
        <ele>86.6</ele>
        <time>2016-02-20T09:56:03Z</time>
      </trkpt>
      <trkpt lat="50.66965" lon="1.82882">
        <ele>83.5</ele>
        <time>2016-02-20T09:56:13Z</time>
      </trkpt>
      <trkpt lat="50.66952" lon="1.82938">
        <ele>79.5</ele>
        <time>2016-02-20T09:56:23Z</time>
      </trkpt>
      <trkpt lat="50.66953" lon="1.8296">
        <ele>77.9</ele>
        <time>2016-02-20T09:56:33Z</time>
      </trkpt>
      <trkpt lat="50.66942" lon="1.82992">
        <ele>77.4</ele>
        <time>2016-02-20T09:56:43Z</time>
      </trkpt>
      <trkpt lat="50.66924" lon="1.82997">
        <ele>77.8</ele>
        <time>2016-02-20T09:56:53Z</time>
      </trkpt>
      <trkpt lat="50.66916" lon="1.8302">
        <ele>78</ele>
        <time>2016-02-20T09:57:03Z</time>
      </trkpt>
      <trkpt lat="50.66917" lon="1.83035">
        <ele>78.3</ele>
        <time>2016-02-20T09:57:13Z</time>
      </trkpt>
      <trkpt lat="50.66919" lon="1.83064">
        <ele>79.4</ele>
        <time>2016-02-20T09:57:23Z</time>
      </trkpt>
      <trkpt lat="50.6693" lon="1.83075">
        <ele>80.2</ele>
        <time>2016-02-20T09:57:33Z</time>
      </trkpt>
      <trkpt lat="50.66935" lon="1.83095">
        <ele>80.9</ele>
        <time>2016-02-20T09:57:43Z</time>
      </trkpt>
      <trkpt lat="50.66932" lon="1.83121">
        <ele>81.8</ele>
        <time>2016-02-20T09:57:53Z</time>
      </trkpt>
      <trkpt lat="50.66932" lon="1.83154">
        <ele>82.9</ele>
        <time>2016-02-20T09:58:03Z</time>
      </trkpt>
      <trkpt lat="50.66927" lon="1.83183">
        <ele>84.5</ele>
        <time>2016-02-20T09:58:13Z</time>
      </trkpt>
      <trkpt lat="50.66932" lon="1.83217">
        <ele>84.7</ele>
        <time>2016-02-20T09:58:23Z</time>
      </trkpt>
      <trkpt lat="50.66929" lon="1.83247">
        <ele>86</ele>
        <time>2016-02-20T09:58:33Z</time>
      </trkpt>
      <trkpt lat="50.66932" lon="1.83277">
        <ele>87.4</ele>
        <time>2016-02-20T09:58:43Z</time>
      </trkpt>
      <trkpt lat="50.66932" lon="1.83306">
        <ele>88.5</ele>
        <time>2016-02-20T09:58:53Z</time>
      </trkpt>
      <trkpt lat="50.66925" lon="1.83344">
        <ele>89.8</ele>
        <time>2016-02-20T09:59:03Z</time>
      </trkpt>
      <trkpt lat="50.66921" lon="1.83378">
        <ele>90.6</ele>
        <time>2016-02-20T09:59:13Z</time>
      </trkpt>
      <trkpt lat="50.66918" lon="1.83407">
        <ele>91.6</ele>
        <time>2016-02-20T09:59:23Z</time>
      </trkpt>
      <trkpt lat="50.66923" lon="1.83432">
        <ele>92.9</ele>
        <time>2016-02-20T09:59:33Z</time>
      </trkpt>
      <trkpt lat="50.66935" lon="1.8344">
        <ele>93</ele>
        <time>2016-02-20T09:59:43Z</time>
      </trkpt>
      <trkpt lat="50.6695" lon="1.83434">
        <ele>92.6</ele>
        <time>2016-02-20T09:59:53Z</time>
      </trkpt>
      <trkpt lat="50.66968" lon="1.83425">
        <ele>93.6</ele>
        <time>2016-02-20T10:00:03Z</time>
      </trkpt>
      <trkpt lat="50.66979" lon="1.8342">
        <ele>94</ele>
        <time>2016-02-20T10:00:13Z</time>
      </trkpt>
      <trkpt lat="50.66989" lon="1.83413">
        <ele>93.9</ele>
        <time>2016-02-20T10:00:23Z</time>
      </trkpt>
      <trkpt lat="50.67" lon="1.834">
        <ele>93.4</ele>
        <time>2016-02-20T10:00:33Z</time>
      </trkpt>
      <trkpt lat="50.67009" lon="1.83405">
        <ele>93.9</ele>
        <time>2016-02-20T10:00:43Z</time>
      </trkpt>
      <trkpt lat="50.6703" lon="1.83408">
        <ele>94.6</ele>
        <time>2016-02-20T10:00:53Z</time>
      </trkpt>
      <trkpt lat="50.67049" lon="1.83413">
        <ele>94.8</ele>
        <time>2016-02-20T10:01:03Z</time>
      </trkpt>
      <trkpt lat="50.67074" lon="1.83407">
        <ele>94.3</ele>
        <time>2016-02-20T10:01:13Z</time>
      </trkpt>
      <trkpt lat="50.671" lon="1.83399">
        <ele>95</ele>
        <time>2016-02-20T10:01:23Z</time>
      </trkpt>
      <trkpt lat="50.67119" lon="1.83403">
        <ele>96.7</ele>
        <time>2016-02-20T10:01:33Z</time>
      </trkpt>
      <trkpt lat="50.67137" lon="1.83401">
        <ele>98.3</ele>
        <time>2016-02-20T10:01:43Z</time>
      </trkpt>
      <trkpt lat="50.67149" lon="1.83383">
        <ele>97.9</ele>
        <time>2016-02-20T10:01:53Z</time>
      </trkpt>
      <trkpt lat="50.67151" lon="1.83356">
        <ele>97</ele>
        <time>2016-02-20T10:02:03Z</time>
      </trkpt>
      <trkpt lat="50.67156" lon="1.83321">
        <ele>94.4</ele>
        <time>2016-02-20T10:02:13Z</time>
      </trkpt>
      <trkpt lat="50.67159" lon="1.83296">
        <ele>93</ele>
        <time>2016-02-20T10:02:23Z</time>
      </trkpt>
      <trkpt lat="50.67161" lon="1.83273">
        <ele>91.8</ele>
        <time>2016-02-20T10:02:33Z</time>
      </trkpt>
      <trkpt lat="50.67164" lon="1.83244">
        <ele>90.1</ele>
        <time>2016-02-20T10:02:43Z</time>
      </trkpt>
      <trkpt lat="50.67168" lon="1.83214">
        <ele>87.4</ele>
        <time>2016-02-20T10:02:53Z</time>
      </trkpt>
      <trkpt lat="50.67165" lon="1.83195">
        <ele>85.9</ele>
        <time>2016-02-20T10:03:03Z</time>
      </trkpt>
      <trkpt lat="50.67151" lon="1.83184">
        <ele>84.5</ele>
        <time>2016-02-20T10:03:13Z</time>
      </trkpt>
      <trkpt lat="50.67125" lon="1.83174">
        <ele>82.7</ele>
        <time>2016-02-20T10:03:23Z</time>
      </trkpt>
      <trkpt lat="50.67115" lon="1.83167">
        <ele>82.1</ele>
        <time>2016-02-20T10:03:33Z</time>
      </trkpt>
    </trkseg>
  </trk>
</gpx>